createdAt,value
2019-05-23T00:00:01.471Z,95.50
2019-05-23T00:02:52.926Z,95.40
2019-05-23T00:05:50.685Z,95.50
2019-05-23T00:08:41.325Z,95.30
2019-05-23T00:11:32.623Z,95.40
2019-05-23T00:14:22.578Z,95.20
2019-05-23T00:16:54.945Z,95.20
2019-05-23T00:19:26.372Z,95.20
2019-05-23T00:21:56.925Z,95.30
2019-05-23T00:24:28.376Z,95.30
2019-05-23T00:26:59.837Z,95.40
2019-05-23T00:29:30.220Z,95.40
2019-05-23T00:32:09.410Z,95.60
2019-05-23T00:34:41.478Z,95.50
2019-05-23T00:37:12.635Z,95.90
2019-05-23T00:39:44.299Z,95.80
2019-05-23T00:42:14.899Z,95.90
2019-05-23T00:44:46.085Z,95.80
2019-05-23T00:47:17.014Z,95.90
2019-05-23T00:49:49.601Z,95.80
2019-05-23T00:52:20.818Z,95.60
2019-05-23T00:54:51.646Z,95.60
2019-05-23T00:57:22.066Z,95.70
2019-05-23T00:59:53.117Z,95.60
2019-05-23T01:02:24.837Z,95.70
2019-05-23T01:04:56.137Z,95.80
2019-05-23T01:07:26.940Z,95.80
2019-05-23T01:09:58.039Z,95.90
2019-05-23T01:12:29.516Z,95.80
2019-05-23T01:14:59.983Z,95.80
2019-05-23T01:17:31.276Z,95.80
2019-05-23T01:20:02.026Z,95.70
2019-05-23T01:22:32.502Z,95.60
2019-05-23T01:25:04.684Z,95.60
2019-05-23T01:27:35.280Z,95.70
2019-05-23T01:30:07.908Z,95.80
2019-05-23T01:32:44.342Z,95.70
2019-05-23T01:35:17.360Z,95.80
2019-05-23T01:37:48.467Z,95.80
2019-05-23T01:40:20.422Z,95.70
2019-05-23T01:42:51.611Z,95.60
2019-05-23T01:45:22.763Z,95.60
2019-05-23T01:47:53.407Z,95.60
2019-05-23T01:50:26.473Z,95.60
2019-05-23T01:52:57.756Z,95.70
2019-05-23T01:55:28.421Z,95.70
2019-05-23T01:57:59.583Z,95.60
2019-05-23T02:00:31.410Z,95.60
2019-05-23T02:03:01.877Z,95.60
2019-05-23T02:05:33.979Z,95.80
2019-05-23T02:08:04.920Z,95.70
2019-05-23T02:10:36.338Z,95.70
2019-05-23T02:13:07.138Z,95.70
2019-05-23T02:15:37.824Z,95.70
2019-05-23T02:18:10.026Z,95.30
2019-05-23T02:20:41.309Z,95.00
2019-05-23T02:23:13.511Z,94.80
2019-05-23T02:25:43.895Z,94.80
2019-05-23T02:28:15.302Z,95.10
2019-05-23T02:30:45.857Z,95.00
2019-05-23T02:33:16.444Z,94.80
2019-05-23T02:35:47.318Z,94.80
2019-05-23T02:38:36.821Z,94.80
2019-05-23T02:41:21.372Z,94.90
2019-05-23T02:43:55.182Z,94.60
2019-05-23T02:46:34.515Z,94.40
2019-05-23T02:49:08.959Z,94.20
2019-05-23T02:51:41.888Z,94.10
2019-05-23T02:54:14.065Z,94.10
2019-05-23T02:56:46.051Z,94.10
2019-05-23T02:59:27.791Z,93.90
2019-05-23T03:02:43.870Z,93.80
2019-05-23T03:05:17.786Z,93.70
2019-05-23T03:07:50.792Z,93.50
2019-05-23T03:10:24.838Z,93.40
2019-05-23T03:12:57.846Z,93.30
2019-05-23T03:15:29.331Z,93.30
2019-05-23T03:18:03.201Z,93.30
2019-05-23T03:20:36.500Z,93.40
2019-05-23T03:23:13.120Z,93.70
2019-05-23T03:26:24.941Z,93.80
2019-05-23T03:28:56.405Z,94.00
2019-05-23T03:31:37.515Z,94.30
2019-05-23T03:34:09.680Z,94.70
2019-05-23T03:36:40.958Z,94.70
2019-05-23T03:39:13.825Z,94.70
2019-05-23T03:41:44.620Z,94.90
2019-05-23T03:44:15.297Z,94.90
2019-05-23T03:46:49.357Z,94.90
2019-05-23T03:49:20.899Z,95.00
2019-05-23T03:51:51.588Z,94.70
2019-05-23T03:54:24.555Z,94.60
2019-05-23T03:56:54.993Z,94.70
2019-05-23T03:59:27.693Z,94.70
2019-05-23T04:01:59.946Z,94.80
2019-05-23T04:04:30.297Z,94.80
2019-05-23T04:07:00.878Z,94.70
2019-05-23T04:09:31.453Z,94.80
2019-05-23T04:12:06.874Z,94.80
2019-05-23T04:14:37.460Z,94.90
2019-05-23T04:17:09.037Z,94.80
2019-05-23T04:19:39.588Z,94.70
2019-05-23T04:22:10.169Z,94.80
2019-05-23T04:24:40.648Z,94.40
2019-05-23T04:27:11.991Z,94.40
2019-05-23T04:29:42.369Z,94.40
2019-05-23T04:32:13.920Z,94.80
2019-05-23T04:34:44.413Z,94.60
2019-05-23T04:37:15.581Z,94.70
2019-05-23T04:39:46.107Z,94.60
2019-05-23T04:42:16.687Z,94.40
2019-05-23T04:44:47.226Z,94.30
2019-05-23T04:47:18.061Z,94.60
2019-05-23T04:49:49.313Z,94.60
2019-05-23T04:52:20.882Z,94.50
2019-05-23T04:54:51.802Z,94.50
2019-05-23T04:57:24.534Z,94.60
2019-05-23T04:59:55.273Z,94.40
2019-05-23T05:02:27.204Z,94.20
2019-05-23T05:04:58.327Z,94.20
2019-05-23T05:07:28.841Z,94.10
2019-05-23T05:09:59.490Z,94.60
2019-05-23T05:12:30.758Z,94.10
2019-05-23T05:15:01.515Z,93.80
2019-05-23T05:17:33.002Z,93.80
2019-05-23T05:20:04.202Z,93.60
2019-05-23T05:22:35.214Z,93.40
2019-05-23T05:25:07.574Z,93.30
2019-05-23T05:27:38.187Z,93.30
2019-05-23T05:30:09.475Z,92.80
2019-05-23T05:32:45.556Z,93.00
2019-05-23T05:35:13.383Z,93.00
2019-05-23T05:37:44.073Z,93.00
2019-05-23T05:40:15.259Z,92.70
2019-05-23T05:42:46.309Z,92.70
2019-05-23T05:45:16.932Z,92.80
2019-05-23T05:47:47.649Z,92.60
2019-05-23T05:50:20.617Z,92.80
2019-05-23T05:52:51.013Z,92.70
2019-05-23T05:55:22.020Z,92.60
2019-05-23T05:57:53.804Z,92.60
2019-05-23T06:00:49.051Z,92.30
2019-05-23T06:03:19.778Z,92.20
2019-05-23T06:06:03.361Z,92.20
2019-05-23T06:08:36.242Z,91.90
2019-05-23T06:11:07.087Z,92.00
2019-05-23T06:13:38.017Z,92.00
2019-05-23T06:16:08.727Z,92.00
2019-05-23T06:18:39.508Z,91.80
2019-05-23T06:21:13.859Z,91.40
2019-05-23T06:23:45.071Z,91.10
2019-05-23T06:26:15.862Z,91.10
2019-05-23T06:28:46.839Z,91.30
2019-05-23T06:31:17.900Z,90.70
2019-05-23T06:33:48.656Z,90.80
2019-05-23T06:36:19.740Z,90.70
2019-05-23T06:38:51.166Z,90.80
2019-05-23T06:41:22.924Z,90.70
2019-05-23T06:43:54.666Z,90.80
2019-05-23T06:46:25.579Z,90.30
2019-05-23T06:48:56.544Z,90.20
2019-05-23T06:51:27.677Z,90.40
2019-05-23T06:53:59.104Z,90.10
2019-05-23T06:56:29.773Z,90.20
2019-05-23T06:59:00.269Z,90.20
2019-05-23T07:01:30.816Z,90.20
2019-05-23T07:04:02.708Z,90.10
2019-05-23T07:06:33.175Z,90.00
2019-05-23T07:09:06.190Z,90.20
2019-05-23T07:11:37.290Z,89.40
2019-05-23T07:14:08.592Z,89.20
2019-05-23T07:16:39.441Z,89.50
2019-05-23T07:19:10.320Z,89.30
2019-05-23T07:21:41.240Z,89.20
2019-05-23T07:24:14.422Z,88.90
2019-05-23T07:26:46.851Z,88.90
2019-05-23T07:29:18.125Z,88.90
2019-05-23T07:31:48.993Z,88.20
2019-05-23T07:34:19.840Z,88.20
2019-05-23T07:36:50.734Z,88.10
2019-05-23T07:39:21.522Z,87.40
2019-05-23T07:41:51.997Z,87.50
2019-05-23T07:44:22.744Z,87.60
2019-05-23T07:46:53.131Z,87.40
2019-05-23T07:49:23.693Z,87.20
2019-05-23T07:51:54.204Z,87.30
2019-05-23T07:54:46.066Z,87.10
2019-05-23T07:57:17.377Z,86.90
2019-05-23T07:59:48.917Z,86.60
2019-05-23T08:02:29.037Z,86.30
2019-05-23T08:04:59.922Z,86.00
2019-05-23T08:07:32.847Z,85.60
2019-05-23T08:10:03.914Z,85.40
2019-05-23T08:12:34.543Z,85.20
2019-05-23T08:15:06.035Z,85.00
2019-05-23T08:17:38.293Z,84.50
2019-05-23T08:20:11.171Z,84.80
2019-05-23T08:22:41.743Z,84.80
2019-05-23T08:25:12.533Z,85.00
2019-05-23T08:27:43.282Z,84.50
2019-05-23T08:30:14.307Z,84.60
2019-05-23T08:32:44.884Z,84.40
2019-05-23T08:35:17.677Z,84.30
2019-05-23T08:37:47.845Z,83.60
2019-05-23T08:40:19.745Z,83.90
2019-05-23T08:42:50.374Z,84.10
2019-05-23T08:45:22.121Z,83.80
2019-05-23T08:47:52.668Z,83.70
2019-05-23T08:50:24.238Z,82.80
2019-05-23T08:52:54.692Z,82.50
2019-05-23T08:55:26.448Z,81.60
2019-05-23T08:57:57.968Z,81.50
2019-05-23T09:00:29.785Z,81.20
2019-05-23T09:03:01.905Z,81.60
2019-05-23T09:05:33.011Z,81.50
2019-05-23T09:08:05.434Z,81.10
2019-05-23T09:10:37.602Z,81.40
2019-05-23T09:13:08.650Z,80.80
2019-05-23T09:15:39.698Z,80.40
2019-05-23T09:18:11.664Z,80.40
2019-05-23T09:20:42.195Z,79.90
2019-05-23T09:23:16.752Z,79.30
2019-05-23T09:25:47.532Z,79.50
2019-05-23T09:28:18.183Z,79.90
2019-05-23T09:30:48.989Z,79.50
2019-05-23T09:33:19.486Z,78.50
2019-05-23T09:35:50.381Z,78.50
2019-05-23T09:38:21.074Z,78.40
2019-05-23T09:40:51.675Z,78.60
2019-05-23T09:43:22.275Z,79.00
2019-05-23T09:45:53.063Z,78.70
2019-05-23T09:48:23.737Z,78.40
2019-05-23T09:50:54.432Z,78.10
2019-05-23T09:53:25.086Z,78.00
2019-05-23T09:55:56.009Z,79.20
2019-05-23T09:58:26.706Z,78.10
2019-05-23T10:00:57.451Z,78.20
2019-05-23T10:03:27.985Z,78.20
2019-05-23T10:05:58.565Z,77.50
2019-05-23T10:08:29.084Z,77.90
2019-05-23T10:10:59.760Z,78.20
2019-05-23T10:13:39.028Z,79.30
2019-05-23T10:16:08.062Z,80.40
2019-05-23T10:18:39.242Z,80.60
2019-05-23T10:21:10.146Z,80.20
2019-05-23T10:23:40.575Z,80.20
2019-05-23T10:26:12.198Z,79.60
2019-05-23T10:28:42.669Z,79.20
2019-05-23T10:31:14.656Z,78.50
2019-05-23T10:33:45.213Z,77.70
2019-05-23T10:36:16.659Z,77.20
2019-05-23T10:38:47.139Z,77.30
2019-05-23T10:41:17.638Z,77.30
2019-05-23T10:43:48.218Z,76.70
2019-05-23T10:46:18.821Z,76.40
2019-05-23T10:48:49.938Z,76.80
2019-05-23T10:51:20.498Z,76.60
2019-05-23T10:53:50.979Z,76.00
2019-05-23T10:56:22.892Z,77.10
2019-05-23T10:58:53.400Z,76.40
2019-05-23T11:01:24.741Z,76.70
2019-05-23T11:03:55.287Z,76.40
2019-05-23T11:06:27.192Z,76.30
2019-05-23T11:08:57.759Z,76.00
2019-05-23T11:11:29.006Z,76.00
2019-05-23T11:13:59.709Z,75.80
2019-05-23T11:16:30.809Z,76.20
2019-05-23T11:19:01.660Z,76.10
2019-05-23T11:21:32.306Z,76.30
2019-05-23T11:24:04.064Z,76.00
2019-05-23T11:26:34.591Z,76.20
2019-05-23T11:29:07.454Z,76.20
2019-05-23T11:31:37.994Z,76.20
2019-05-23T11:34:08.964Z,76.10
2019-05-23T11:36:39.720Z,75.70
2019-05-23T11:39:11.023Z,75.70
2019-05-23T11:41:41.555Z,75.70
2019-05-23T11:44:11.983Z,75.70
2019-05-23T11:46:42.604Z,75.90
2019-05-23T11:49:13.382Z,75.60
2019-05-23T11:51:45.442Z,75.70
2019-05-23T11:54:16.816Z,75.30
2019-05-23T11:56:47.875Z,75.80
2019-05-23T11:59:18.437Z,75.40
2019-05-23T12:02:09.726Z,75.80
2019-05-23T12:04:50.283Z,75.70
2019-05-23T12:07:29.808Z,75.70
2019-05-23T12:10:00.384Z,75.00
2019-05-23T12:12:32.121Z,75.00
2019-05-23T12:15:02.884Z,74.40
2019-05-23T12:17:34.074Z,74.80
2019-05-23T12:20:05.988Z,74.30
2019-05-23T12:22:36.852Z,73.70
2019-05-23T12:25:21.239Z,73.10
2019-05-23T12:27:40.466Z,72.90
2019-05-23T12:30:14.219Z,71.90
2019-05-23T12:32:44.818Z,72.00
2019-05-23T12:35:15.394Z,71.50
2019-05-23T12:37:45.992Z,70.60
2019-05-23T12:40:16.707Z,70.40
2019-05-23T12:42:47.185Z,70.30
2019-05-23T12:45:17.991Z,69.70
2019-05-23T12:47:53.876Z,69.60
2019-05-23T12:50:27.827Z,70.00
2019-05-23T12:52:58.480Z,70.10
2019-05-23T12:55:29.258Z,69.50
2019-05-23T12:58:01.035Z,69.70
2019-05-23T13:00:41.900Z,70.10
2019-05-23T13:03:13.462Z,70.20
2019-05-23T13:05:44.349Z,70.10
2019-05-23T13:08:14.947Z,71.10
2019-05-23T13:10:46.426Z,70.20
2019-05-23T13:13:17.057Z,69.20
2019-05-23T13:15:48.500Z,69.40
2019-05-23T13:18:19.267Z,69.10
2019-05-23T13:20:49.865Z,69.70
2019-05-23T13:23:21.603Z,70.30
2019-05-23T13:25:52.238Z,70.20
2019-05-23T13:28:22.759Z,70.50
2019-05-23T13:30:53.452Z,70.80
2019-05-23T13:33:24.562Z,70.50
2019-05-23T13:35:55.068Z,70.40
2019-05-23T13:38:25.593Z,70.20
2019-05-23T13:40:56.099Z,70.30
2019-05-23T13:43:27.487Z,70.20
2019-05-23T13:45:58.191Z,70.40
2019-05-23T13:48:28.778Z,70.40
2019-05-23T13:50:59.514Z,70.50
2019-05-23T13:53:30.775Z,70.60
2019-05-23T13:56:01.817Z,70.60
2019-05-23T13:58:32.524Z,70.90
2019-05-23T14:01:08.206Z,70.50
2019-05-23T14:03:36.753Z,70.30
2019-05-23T14:06:08.031Z,69.50
2019-05-23T14:08:38.846Z,68.50
2019-05-23T14:11:09.990Z,67.60
2019-05-23T14:13:40.622Z,67.30
2019-05-23T14:16:11.259Z,66.60
2019-05-23T14:18:41.832Z,66.90
2019-05-23T14:21:12.533Z,67.30
2019-05-23T14:23:43.038Z,67.30
2019-05-23T14:26:14.495Z,67.40
2019-05-23T14:28:45.457Z,67.20
2019-05-23T14:31:17.808Z,67.20
2019-05-23T14:34:00.634Z,67.20
2019-05-23T14:37:02.040Z,66.40
2019-05-23T14:39:54.445Z,66.70
2019-05-23T14:43:02.877Z,67.00
2019-05-23T14:45:56.574Z,67.00
2019-05-23T14:48:48.814Z,66.20
2019-05-23T14:51:44.549Z,66.60
2019-05-23T14:54:32.569Z,66.60
2019-05-23T14:57:04.765Z,66.60
2019-05-23T14:59:37.339Z,67.50
2019-05-23T15:02:12.551Z,66.40
2019-05-23T15:04:43.225Z,66.20
2019-05-23T15:07:14.184Z,65.30
2019-05-23T15:09:45.016Z,65.70
2019-05-23T15:12:15.982Z,65.20
2019-05-23T15:14:46.719Z,65.60
2019-05-23T15:17:17.789Z,65.30
2019-05-23T15:19:48.316Z,65.90
2019-05-23T15:22:18.882Z,66.30
2019-05-23T15:24:49.543Z,66.80
2019-05-23T15:27:20.101Z,67.20
2019-05-23T15:29:50.644Z,67.20
2019-05-23T15:32:21.415Z,66.80
2019-05-23T15:34:52.028Z,67.10
2019-05-23T15:37:24.338Z,67.30
2019-05-23T15:39:55.203Z,67.80
2019-05-23T15:42:25.919Z,67.90
2019-05-23T15:44:56.583Z,68.20
2019-05-23T15:47:30.359Z,68.80
2019-05-23T15:50:08.369Z,66.70
2019-05-23T15:53:08.509Z,66.30
2019-05-23T15:55:45.082Z,66.70
2019-05-23T15:58:34.459Z,66.20
2019-05-23T16:01:12.084Z,66.30
2019-05-23T16:03:44.715Z,63.70
2019-05-23T16:06:17.881Z,61.60
2019-05-23T16:08:49.233Z,61.40
2019-05-23T16:11:20.497Z,61.80
2019-05-23T16:13:51.196Z,61.20
2019-05-23T16:16:21.821Z,61.10
2019-05-23T16:18:53.384Z,62.00
2019-05-23T16:21:23.847Z,62.80
2019-05-23T16:23:54.536Z,61.80
2019-05-23T16:26:25.141Z,62.20
2019-05-23T16:28:55.636Z,63.00
2019-05-23T16:31:26.012Z,63.30
2019-05-23T16:33:56.400Z,63.90
2019-05-23T16:36:27.112Z,63.70
2019-05-23T16:38:57.579Z,63.70
2019-05-23T16:41:28.030Z,63.40
2019-05-23T16:43:58.969Z,63.50
2019-05-23T16:46:30.077Z,63.00
2019-05-23T16:49:00.681Z,63.10
2019-05-23T16:51:32.330Z,63.40
2019-05-23T16:54:04.475Z,64.00
2019-05-23T16:56:49.635Z,63.70
2019-05-23T16:59:30.000Z,63.00
2019-05-23T17:02:13.526Z,61.30
2019-05-23T17:05:08.582Z,60.20
2019-05-23T17:07:46.646Z,58.80
2019-05-23T17:10:39.447Z,57.10
2019-05-23T17:13:17.346Z,55.50
2019-05-23T17:16:16.776Z,54.80
2019-05-23T17:18:55.536Z,55.10
2019-05-23T17:21:35.586Z,55.10
2019-05-23T17:24:22.257Z,54.60
2019-05-23T17:27:10.653Z,54.80
2019-05-23T17:29:48.802Z,54.80
2019-05-23T17:32:23.371Z,55.60
2019-05-23T17:34:54.329Z,55.30
2019-05-23T17:37:25.446Z,55.80
2019-05-23T17:39:57.024Z,55.70
2019-05-23T17:42:27.790Z,55.80
2019-05-23T17:44:58.637Z,56.00
2019-05-23T17:47:29.761Z,56.00
2019-05-23T17:50:00.309Z,56.40
2019-05-23T17:52:32.210Z,56.30
2019-05-23T17:55:03.310Z,56.70
2019-05-23T17:57:34.134Z,57.00
2019-05-23T18:00:05.595Z,57.30
2019-05-23T18:02:36.429Z,57.80
2019-05-23T18:05:08.163Z,58.20
2019-05-23T18:07:39.343Z,58.60
2019-05-23T18:10:11.216Z,58.90
2019-05-23T18:12:41.736Z,59.20
2019-05-23T18:15:13.581Z,59.50
2019-05-23T18:17:44.467Z,59.90
2019-05-23T18:20:16.245Z,60.10
2019-05-23T18:22:47.074Z,60.00
2019-05-23T18:25:19.166Z,60.40
2019-05-23T18:27:49.946Z,60.20
2019-05-23T18:30:38.453Z,59.90
2019-05-23T18:33:11.476Z,59.80
2019-05-23T18:35:42.148Z,59.90
2019-05-23T18:38:13.088Z,59.50
2019-05-23T18:40:59.824Z,59.60
2019-05-23T18:43:17.201Z,59.60
2019-05-23T18:45:49.300Z,59.60
2019-05-23T18:48:19.818Z,59.30
2019-05-23T18:50:50.335Z,58.60
2019-05-23T18:53:22.689Z,58.00
2019-05-23T18:55:53.297Z,57.60
2019-05-23T18:58:24.114Z,56.90
2019-05-23T19:01:06.880Z,56.60
2019-05-23T19:03:37.613Z,56.80
2019-05-23T19:06:08.130Z,56.90
2019-05-23T19:08:38.711Z,56.70
2019-05-23T19:11:20.037Z,56.80
2019-05-23T19:13:41.443Z,57.90
2019-05-23T19:16:12.064Z,58.30
2019-05-23T19:18:43.435Z,59.50
2019-05-23T19:21:14.997Z,60.10
2019-05-23T19:23:45.666Z,60.90
2019-05-23T19:26:17.078Z,61.60
2019-05-23T19:28:48.198Z,62.40
2019-05-23T19:31:20.267Z,62.60
2019-05-23T19:33:51.255Z,62.80
2019-05-23T19:36:22.546Z,63.00
2019-05-23T19:38:53.123Z,63.00
2019-05-23T19:41:36.754Z,62.90
2019-05-23T19:43:56.290Z,62.80
2019-05-23T19:46:26.894Z,62.50
2019-05-23T19:48:58.809Z,62.70
2019-05-23T19:51:29.662Z,62.70
2019-05-23T19:54:01.608Z,63.20
2019-05-23T19:56:32.510Z,63.10
2019-05-23T19:59:04.451Z,63.10
2019-05-23T20:01:46.299Z,62.90
2019-05-23T20:04:17.066Z,63.10
2019-05-23T20:06:48.431Z,63.10
2019-05-23T20:09:20.566Z,63.00
2019-05-23T20:11:54.581Z,63.50
2019-05-23T20:14:24.416Z,63.90
2019-05-23T20:16:55.244Z,64.00
2019-05-23T20:19:25.863Z,64.10
2019-05-23T20:21:56.349Z,63.90
2019-05-23T20:24:26.965Z,64.10
2019-05-23T20:26:57.595Z,63.80
2019-05-23T20:29:28.077Z,64.00
2019-05-23T20:32:01.268Z,64.20
2019-05-23T20:34:31.825Z,64.30
2019-05-23T20:37:02.669Z,64.20
2019-05-23T20:39:34.158Z,64.40
2019-05-23T20:42:11.477Z,64.40
2019-05-23T20:44:36.912Z,64.40
2019-05-23T20:47:08.219Z,64.80
2019-05-23T20:49:39.182Z,64.50
2019-05-23T20:52:10.443Z,64.40
2019-05-23T20:54:41.052Z,64.20
2019-05-23T20:57:12.124Z,64.30
2019-05-23T20:59:42.634Z,64.60
2019-05-23T21:02:13.357Z,64.60
2019-05-23T21:04:43.941Z,64.90
2019-05-23T21:07:14.592Z,64.80
2019-05-23T21:09:45.341Z,65.20
2019-05-23T21:12:29.555Z,65.60
2019-05-23T21:14:48.115Z,65.50
2019-05-23T21:17:18.736Z,65.70
2019-05-23T21:19:49.159Z,65.90
2019-05-23T21:22:19.547Z,66.10
2019-05-23T21:24:50.223Z,66.20
2019-05-23T21:27:21.067Z,66.10
2019-05-23T21:30:06.029Z,66.40
2019-05-23T21:32:36.469Z,66.50
2019-05-23T21:35:07.036Z,66.40
2019-05-23T21:37:37.552Z,66.50
2019-05-23T21:40:10.697Z,66.30
2019-05-23T21:42:47.873Z,66.50
2019-05-23T21:45:13.739Z,66.70
2019-05-23T21:47:44.287Z,66.80
2019-05-23T21:50:14.930Z,66.90
2019-05-23T21:52:45.415Z,66.90
2019-05-23T21:55:18.918Z,67.30
2019-05-23T21:57:49.429Z,66.80
2019-05-23T22:00:39.650Z,66.70
2019-05-23T22:03:12.431Z,67.00
2019-05-23T22:05:43.504Z,67.10
2019-05-23T22:08:14.106Z,67.30
2019-05-23T22:10:44.597Z,67.00
2019-05-23T22:13:15.097Z,67.10
2019-05-23T22:15:45.545Z,66.80
2019-05-23T22:18:16.903Z,67.70
2019-05-23T22:20:48.041Z,67.00
2019-05-23T22:23:18.727Z,67.30
2019-05-23T22:25:49.411Z,67.10
2019-05-23T22:28:20.199Z,67.30
2019-05-23T22:30:51.886Z,67.20
2019-05-23T22:33:25.589Z,67.20
2019-05-23T22:35:56.160Z,67.30
2019-05-23T22:38:26.670Z,67.10
2019-05-23T22:40:57.114Z,66.80
2019-05-23T22:43:27.512Z,66.60
2019-05-23T22:45:58.225Z,66.60
2019-05-23T22:48:28.767Z,66.60
2019-05-23T22:50:59.291Z,66.80
2019-05-23T22:53:29.855Z,66.70
2019-05-23T22:56:00.393Z,67.00
2019-05-23T22:58:30.928Z,66.70
2019-05-23T23:01:01.672Z,66.80
2019-05-23T23:03:32.557Z,67.40
2019-05-23T23:06:03.906Z,67.10
2019-05-23T23:08:35.169Z,67.10
2019-05-23T23:11:05.781Z,67.20
2019-05-23T23:13:38.978Z,66.90
2019-05-23T23:16:09.389Z,67.20
2019-05-23T23:18:39.976Z,67.00
2019-05-23T23:21:10.576Z,66.90
2019-05-23T23:23:41.228Z,67.10
2019-05-23T23:26:11.915Z,67.20
2019-05-23T23:28:42.398Z,67.40
2019-05-23T23:31:13.175Z,67.30
2019-05-23T23:33:43.701Z,67.30
2019-05-23T23:36:14.164Z,67.50
2019-05-23T23:38:44.677Z,67.60
2019-05-23T23:41:15.137Z,67.70
2019-05-23T23:43:58.821Z,67.80
2019-05-23T23:46:35.389Z,67.70
2019-05-23T23:49:23.512Z,67.80
2019-05-23T23:52:11.413Z,67.70
2019-05-23T23:55:00.011Z,67.70
2019-05-23T23:57:48.437Z,67.40
